createdAt,value
2018-04-16T00:00:36.443Z,2.37
2018-04-16T00:03:04.329Z,2.40
2018-04-16T00:05:32.342Z,1.70
2018-04-16T00:08:00.316Z,2.60
2018-04-16T00:10:29.045Z,2.50
2018-04-16T00:12:56.985Z,2.50
2018-04-16T00:15:25.757Z,2.60
2018-04-16T00:17:53.709Z,2.90
2018-04-16T00:20:21.698Z,1.98
2018-04-16T00:22:49.605Z,2.25
2018-04-16T00:25:17.611Z,3.08
2018-04-16T00:27:45.561Z,2.92
2018-04-16T00:30:13.490Z,2.50
2018-04-16T00:32:47.793Z,2.05
2018-04-16T00:35:21.425Z,1.98
2018-04-16T00:40:58.647Z,2.53
2018-04-16T00:43:32.159Z,1.85
2018-04-16T00:46:05.763Z,2.37
2018-04-16T00:48:39.336Z,2.75
2018-04-16T00:51:12.890Z,2.17
2018-04-16T00:53:58.254Z,2.40
2018-04-16T00:56:32.449Z,2.50
2018-04-16T00:59:05.895Z,2.25
2018-04-16T01:04:47.234Z,1.80
2018-04-16T01:07:21.632Z,2.55
2018-04-16T01:09:54.962Z,2.47
2018-04-16T01:12:28.430Z,2.25
2018-04-16T01:15:01.942Z,2.53
2018-04-16T01:17:36.205Z,2.17
2018-04-16T01:20:09.737Z,2.45
2018-04-16T01:23:00.145Z,2.22
2018-04-16T01:25:33.557Z,2.53
2018-04-16T01:28:07.855Z,2.55
2018-04-16T01:30:41.259Z,3.17
2018-04-16T01:33:14.768Z,2.00
2018-04-16T01:35:48.265Z,2.00
2018-04-16T01:38:21.699Z,2.55
2018-04-16T01:40:55.256Z,2.25
2018-04-16T01:43:28.702Z,1.87
2018-04-16T01:46:02.068Z,2.45
2018-04-16T01:48:36.439Z,2.22
2018-04-16T01:51:09.798Z,2.53
2018-04-16T01:53:44.011Z,2.35
2018-04-16T01:56:18.192Z,2.12
2018-04-16T01:58:51.637Z,2.60
2018-04-16T02:01:25.071Z,2.58
2018-04-16T02:03:58.689Z,2.05
2018-04-16T02:06:32.101Z,2.03
2018-04-16T02:09:05.600Z,2.47
2018-04-16T02:11:39.267Z,1.90
2018-04-16T02:14:12.708Z,2.62
2018-04-16T02:16:46.109Z,2.00
2018-04-16T02:19:19.769Z,2.30
2018-04-16T02:21:53.174Z,2.20
2018-04-16T02:24:26.576Z,2.05
2018-04-16T02:26:59.991Z,1.80
2018-04-16T02:29:33.562Z,2.67
2018-04-16T02:32:07.105Z,1.87
2018-04-16T02:34:40.750Z,2.75
2018-04-16T02:37:14.206Z,1.92
2018-04-16T02:39:47.654Z,2.12
2018-04-16T02:42:21.149Z,2.08
2018-04-16T02:44:54.768Z,2.20
2018-04-16T02:47:28.258Z,3.22
2018-04-16T02:50:01.856Z,2.22
2018-04-16T02:52:35.411Z,1.92
2018-04-16T02:55:09.477Z,2.00
2018-04-16T02:57:43.024Z,2.17
2018-04-16T03:00:16.462Z,1.92
2018-04-16T03:02:49.968Z,2.25
2018-04-16T03:05:23.592Z,2.05
2018-04-16T03:07:57.121Z,2.00
2018-04-16T03:10:30.547Z,2.40
2018-04-16T03:13:04.049Z,1.90
2018-04-16T03:15:37.474Z,2.60
2018-04-16T03:18:10.920Z,2.10
2018-04-16T03:20:44.431Z,2.00
2018-04-16T03:23:18.706Z,2.17
2018-04-16T03:25:52.186Z,1.80
2018-04-16T03:28:25.778Z,1.67
2018-04-16T03:30:59.339Z,2.00
2018-04-16T03:36:27.120Z,1.67
2018-04-16T03:39:00.463Z,2.20
2018-04-16T03:41:34.041Z,2.67
2018-04-16T03:44:08.377Z,2.83
2018-04-16T03:46:41.945Z,2.05
2018-04-16T03:52:20.413Z,2.55
2018-04-16T03:54:49.526Z,2.67
2018-04-16T03:57:17.515Z,6.78
2018-04-16T03:59:46.203Z,4.57
2018-04-16T04:02:14.159Z,4.05
2018-04-16T04:04:42.062Z,2.92
2018-04-16T04:07:10.026Z,3.12
2018-04-16T04:09:37.959Z,2.25
2018-04-16T04:12:05.918Z,2.70
2018-04-16T04:14:34.617Z,3.58
2018-04-16T04:17:02.622Z,3.85
2018-04-16T04:19:30.512Z,3.62
2018-04-16T04:21:58.467Z,3.30
2018-04-16T04:24:38.018Z,3.12
2018-04-16T04:27:17.658Z,3.33
2018-04-16T04:29:57.327Z,2.65
2018-04-16T04:32:25.290Z,3.08
2018-04-16T04:34:53.185Z,2.78
2018-04-16T04:37:21.189Z,2.78
2018-04-16T04:39:49.085Z,2.55
2018-04-16T04:42:17.039Z,3.20
2018-04-16T04:44:44.932Z,2.45
2018-04-16T04:47:17.517Z,3.30
2018-04-16T04:49:49.735Z,2.50
2018-04-16T04:52:22.252Z,2.40
2018-04-16T04:54:53.307Z,2.58
2018-04-16T04:57:24.921Z,2.58
2018-04-16T04:59:56.475Z,2.67
2018-04-16T05:02:26.019Z,3.83
2018-04-16T05:04:54.912Z,2.92
2018-04-16T05:07:23.573Z,2.55
2018-04-16T05:09:54.346Z,3.22
2018-04-16T05:12:26.186Z,3.45
2018-04-16T05:14:56.783Z,3.30
2018-04-16T05:17:28.439Z,3.10
2018-04-16T05:19:59.958Z,4.28
2018-04-16T05:22:30.768Z,3.85
2018-04-16T05:25:01.315Z,3.47
2018-04-16T05:27:29.651Z,3.22
2018-04-16T05:29:59.975Z,3.00
2018-04-16T05:32:28.115Z,2.80
2018-04-16T05:34:56.138Z,3.10
2018-04-16T05:37:24.030Z,2.70
2018-04-16T05:39:51.986Z,3.05
2018-04-16T05:42:19.887Z,3.12
2018-04-16T05:44:48.591Z,2.90
2018-04-16T05:47:19.175Z,3.45
2018-04-16T05:49:49.790Z,3.50
2018-04-16T05:52:20.677Z,2.70
2018-04-16T05:54:52.898Z,3.55
2018-04-16T05:57:24.719Z,2.55
2018-04-16T05:59:55.787Z,3.20
2018-04-16T06:02:26.773Z,2.97
2018-04-16T06:04:58.056Z,3.00
2018-04-16T06:07:31.803Z,2.65
2018-04-16T06:10:04.082Z,2.95
2018-04-16T06:12:34.673Z,2.17
2018-04-16T06:15:05.795Z,2.28
2018-04-16T06:17:36.671Z,2.25
2018-04-16T06:20:08.180Z,2.60
2018-04-16T06:22:39.221Z,2.20
2018-04-16T06:25:10.413Z,2.10
2018-04-16T06:27:41.856Z,2.33
2018-04-16T06:30:11.846Z,4.00
2018-04-16T06:32:42.887Z,4.07
2018-04-16T06:35:13.666Z,3.07
2018-04-16T06:37:45.623Z,2.70
2018-04-16T06:40:17.238Z,2.60
2018-04-16T06:42:48.544Z,1.60
2018-04-16T06:45:19.921Z,1.53
2018-04-16T06:47:50.547Z,1.63
2018-04-16T06:50:18.695Z,2.00
2018-04-16T06:52:46.585Z,1.73
2018-04-16T06:55:14.544Z,1.57
2018-04-16T06:57:42.449Z,1.50
2018-04-16T07:00:11.192Z,1.33
2018-04-16T07:02:39.089Z,1.47
2018-04-16T07:05:07.040Z,1.60
2018-04-16T07:07:35.013Z,1.83
2018-04-16T07:10:02.976Z,1.10
2018-04-16T07:12:30.871Z,1.53
2018-04-16T07:14:58.829Z,1.73
2018-04-16T07:17:26.786Z,1.57
2018-04-16T07:19:54.789Z,1.47
2018-04-16T07:22:25.437Z,1.97
2018-04-16T07:24:53.321Z,1.83
2018-04-16T07:27:21.301Z,2.10
2018-04-16T07:29:49.241Z,1.93
2018-04-16T07:32:17.190Z,2.23
2018-04-16T07:34:45.079Z,2.10
2018-04-16T07:37:13.795Z,2.20
2018-04-16T07:39:41.750Z,2.07
2018-04-16T07:42:09.705Z,2.27
2018-04-16T07:44:38.395Z,2.20
2018-04-16T07:47:07.102Z,2.37
2018-04-16T07:49:35.001Z,2.10
2018-04-16T07:52:02.963Z,2.57
2018-04-16T07:54:30.853Z,1.93
2018-04-16T07:56:58.824Z,3.50
2018-04-16T07:59:26.720Z,3.00
2018-04-16T08:01:55.456Z,3.13
2018-04-16T08:04:26.776Z,3.10
2018-04-16T08:06:57.020Z,3.47
2018-04-16T08:09:26.220Z,3.90
2018-04-16T08:11:54.329Z,3.60
2018-04-16T08:14:22.231Z,3.10
2018-04-16T08:16:50.974Z,3.07
2018-04-16T08:19:18.911Z,3.20
2018-04-16T08:21:47.649Z,2.93
2018-04-16T08:24:15.566Z,2.70
2018-04-16T08:26:43.479Z,2.73
2018-04-16T08:29:11.439Z,2.30
2018-04-16T08:31:39.410Z,2.60
2018-04-16T08:34:07.380Z,2.80
2018-04-16T08:36:35.296Z,3.50
2018-04-16T08:39:03.369Z,3.37
2018-04-16T08:41:32.041Z,3.10
2018-04-16T08:44:00.001Z,3.23
2018-04-16T08:46:27.912Z,2.80
2018-04-16T08:48:55.914Z,3.87
2018-04-16T08:51:23.818Z,2.53
2018-04-16T08:53:52.557Z,3.00
2018-04-16T08:56:21.226Z,3.27
2018-04-16T08:58:49.192Z,3.30
2018-04-16T09:01:17.118Z,3.00
2018-04-16T09:03:45.112Z,2.77
2018-04-16T09:06:13.771Z,3.50
2018-04-16T09:08:41.730Z,2.97
2018-04-16T09:11:10.520Z,2.87
2018-04-16T09:13:38.598Z,3.73
2018-04-16T09:16:06.538Z,3.47
2018-04-16T09:18:34.500Z,3.17
2018-04-16T09:21:02.709Z,4.17
2018-04-16T09:23:30.673Z,3.17
2018-04-16T09:25:59.609Z,3.30
2018-04-16T09:28:28.526Z,3.90
2018-04-16T09:30:56.429Z,3.80
2018-04-16T09:33:24.389Z,4.47
2018-04-16T09:35:52.296Z,3.40
2018-04-16T09:38:20.254Z,4.00
2018-04-16T09:40:48.153Z,3.57
2018-04-16T09:43:16.112Z,3.30
2018-04-16T09:45:44.793Z,3.50
2018-04-16T09:48:12.750Z,4.53
2018-04-16T09:50:40.675Z,3.80
2018-04-16T09:53:08.629Z,3.03
2018-04-16T09:55:37.302Z,3.97
2018-04-16T09:58:06.047Z,3.40
2018-04-16T10:00:39.581Z,2.63
2018-04-16T10:03:07.597Z,3.23
2018-04-16T10:05:35.894Z,4.43
2018-04-16T10:08:03.865Z,3.87
2018-04-16T10:10:31.774Z,3.27
2018-04-16T10:12:59.782Z,4.80
2018-04-16T10:15:27.749Z,4.00
2018-04-16T10:17:55.775Z,4.60
2018-04-16T10:20:23.689Z,4.53
2018-04-16T10:22:51.644Z,4.60
2018-04-16T10:25:20.331Z,5.50
2018-04-16T10:27:49.089Z,6.10
2018-04-16T10:30:17.000Z,4.50
2018-04-16T10:32:45.018Z,4.13
2018-04-16T10:35:12.919Z,4.30
2018-04-16T10:37:41.634Z,4.97
2018-04-16T10:40:09.594Z,3.70
2018-04-16T10:42:37.562Z,3.37
2018-04-16T10:45:05.485Z,4.13
2018-04-16T10:47:33.435Z,3.97
2018-04-16T10:50:01.349Z,3.10
2018-04-16T10:52:29.345Z,2.40
2018-04-16T10:54:57.233Z,2.57
2018-04-16T10:57:25.179Z,2.70
2018-04-16T10:59:53.117Z,3.30
2018-04-16T11:02:21.017Z,3.20
2018-04-16T11:04:49.016Z,3.27
2018-04-16T11:07:17.217Z,3.30
2018-04-16T11:09:46.254Z,4.13
2018-04-16T11:12:14.920Z,2.80
2018-04-16T11:14:42.917Z,3.47
2018-04-16T11:17:15.112Z,2.93
2018-04-16T11:19:45.588Z,3.17
2018-04-16T11:22:13.513Z,3.07
2018-04-16T11:24:41.505Z,3.50
2018-04-16T11:27:09.433Z,3.23
2018-04-16T11:29:37.445Z,3.53
2018-04-16T11:32:06.371Z,3.20
2018-04-16T11:34:35.103Z,2.93
2018-04-16T11:37:03.049Z,3.30
2018-04-16T11:39:30.998Z,2.70
2018-04-16T11:41:59.652Z,3.13
2018-04-16T11:44:27.596Z,3.00
2018-04-16T11:46:55.777Z,2.90
2018-04-16T11:49:24.371Z,3.27
2018-04-16T11:51:52.333Z,2.80
2018-04-16T11:54:20.320Z,3.33
2018-04-16T11:56:48.210Z,3.30
2018-04-16T11:59:17.065Z,3.20
2018-04-16T12:01:45.018Z,3.57
2018-04-16T12:04:14.438Z,2.67
2018-04-16T12:06:42.482Z,2.03
2018-04-16T12:09:10.452Z,3.03
2018-04-16T12:11:38.362Z,3.33
2018-04-16T12:14:06.324Z,3.80
2018-04-16T12:16:34.296Z,3.57
2018-04-16T12:19:02.348Z,3.20
2018-04-16T12:21:30.267Z,2.80
2018-04-16T12:23:58.225Z,2.60
2018-04-16T12:26:26.214Z,2.20
2018-04-16T12:28:54.207Z,2.80
2018-04-16T12:31:22.877Z,3.90
2018-04-16T12:33:51.639Z,3.33
2018-04-16T12:36:19.529Z,2.90
2018-04-16T12:38:47.510Z,3.40
2018-04-16T12:41:16.185Z,3.17
2018-04-16T12:43:44.305Z,3.30
2018-04-16T12:46:12.282Z,3.90
2018-04-16T12:48:46.938Z,3.37
2018-04-16T12:51:18.191Z,2.73
2018-04-16T12:53:46.129Z,3.77
2018-04-16T12:58:58.382Z,3.10
2018-04-16T13:01:26.361Z,2.93
2018-04-16T13:03:54.341Z,4.50
2018-04-16T13:06:23.058Z,3.63
2018-04-16T13:08:51.060Z,4.30
2018-04-16T13:11:18.964Z,3.80
2018-04-16T13:13:46.922Z,3.30
2018-04-16T13:16:14.832Z,4.23
2018-04-16T13:18:42.824Z,4.17
2018-04-16T13:21:10.847Z,3.87
2018-04-16T13:23:39.586Z,4.33
2018-04-16T13:26:08.257Z,4.00
2018-04-16T13:28:36.218Z,5.17
2018-04-16T13:31:04.876Z,3.30
2018-04-16T13:33:32.817Z,3.97
2018-04-16T13:36:00.746Z,4.50
2018-04-16T13:38:28.705Z,4.13
2018-04-16T13:40:57.370Z,4.40
2018-04-16T13:46:39.724Z,4.87
2018-04-16T13:49:11.352Z,4.93
2018-04-16T13:51:39.351Z,4.03
2018-04-16T13:54:07.302Z,3.73
2018-04-16T13:56:35.189Z,4.27
2018-04-16T13:59:03.191Z,3.93
2018-04-16T14:01:31.135Z,4.20
2018-04-16T14:04:05.978Z,3.43
2018-04-16T14:06:33.877Z,4.00
2018-04-16T14:09:01.839Z,4.60
2018-04-16T14:11:29.731Z,4.67
2018-04-16T14:13:57.679Z,4.67
2018-04-16T14:16:26.346Z,4.10
2018-04-16T14:18:54.319Z,4.70
2018-04-16T14:21:22.205Z,4.10
2018-04-16T14:23:50.228Z,4.00
2018-04-16T14:26:18.944Z,3.90
2018-04-16T14:28:46.892Z,4.10
2018-04-16T14:31:16.263Z,4.43
2018-04-16T14:33:44.704Z,3.70
2018-04-16T14:36:12.680Z,2.60
2018-04-16T14:38:41.611Z,3.47
2018-04-16T14:41:09.693Z,4.03
2018-04-16T14:43:38.424Z,3.47
2018-04-16T14:46:10.849Z,4.43
2018-04-16T14:48:42.333Z,4.10
2018-04-16T14:51:10.484Z,4.83
2018-04-16T14:53:39.281Z,3.73
2018-04-16T14:56:08.082Z,4.40
2018-04-16T14:58:37.176Z,4.67
2018-04-16T15:01:14.957Z,5.70
2018-04-16T15:03:46.877Z,4.40
2018-04-16T15:06:14.773Z,4.27
2018-04-16T15:08:42.716Z,3.97
2018-04-16T15:11:10.664Z,5.10
2018-04-16T15:13:40.078Z,4.30
2018-04-16T15:16:08.059Z,4.10
2018-04-16T15:18:36.168Z,4.33
2018-04-16T15:21:04.188Z,4.40
2018-04-16T15:23:32.142Z,4.27
2018-04-16T15:26:02.570Z,4.80
2018-04-16T15:28:31.544Z,4.20
2018-04-16T15:30:59.562Z,4.10
2018-04-16T15:33:32.197Z,4.30
2018-04-16T15:36:01.064Z,4.83
2018-04-16T15:38:32.272Z,3.73
2018-04-16T15:41:22.521Z,4.37
2018-04-16T15:46:45.813Z,4.57
2018-04-16T15:49:14.414Z,4.63
2018-04-16T15:51:48.706Z,4.10
2018-04-16T15:54:21.593Z,3.40
2018-04-16T15:56:51.303Z,4.30
2018-04-16T15:59:32.247Z,4.30
2018-04-16T16:04:59.653Z,3.60
2018-04-16T16:07:30.297Z,3.67
2018-04-16T16:10:00.142Z,3.40
2018-04-16T16:12:28.863Z,4.40
2018-04-16T16:14:58.082Z,4.27
2018-04-16T16:17:26.078Z,4.10
2018-04-16T16:19:54.825Z,3.87
2018-04-16T16:22:22.721Z,4.20
2018-04-16T16:24:50.682Z,4.10
2018-04-16T16:27:19.844Z,4.20
2018-04-16T16:29:50.221Z,4.30
2018-04-16T16:32:18.155Z,3.90
2018-04-16T16:34:46.293Z,3.60
2018-04-16T16:37:14.351Z,3.80
2018-04-16T16:39:46.099Z,4.50
2018-04-16T16:42:15.272Z,3.83
2018-04-16T16:44:46.441Z,3.80
2018-04-16T16:47:14.439Z,3.63
2018-04-16T16:49:44.526Z,4.60
2018-04-16T16:52:14.615Z,4.00
2018-04-16T16:54:42.638Z,4.07
2018-04-16T16:57:11.312Z,3.60
2018-04-16T16:59:41.367Z,4.43
2018-04-16T17:05:21.410Z,4.13
2018-04-16T17:07:57.072Z,4.23
2018-04-16T17:10:26.565Z,4.87
2018-04-16T17:13:07.463Z,4.90
2018-04-16T17:18:18.444Z,3.33
2018-04-16T17:24:11.522Z,4.43
2018-04-16T17:50:52.255Z,4.00
2018-04-16T17:53:20.692Z,3.50
2018-04-16T17:55:50.727Z,3.10
2018-04-16T17:58:23.966Z,3.13
2018-04-16T18:00:52.182Z,2.80
2018-04-16T18:03:33.033Z,3.30
2018-04-16T18:06:06.982Z,4.00
2018-04-16T18:08:35.135Z,3.47
2018-04-16T18:11:04.454Z,3.80
2018-04-16T18:13:32.521Z,4.47
2018-04-16T18:16:00.499Z,3.37
2018-04-16T18:18:28.472Z,3.47
2018-04-16T18:20:56.439Z,3.90
2018-04-16T18:23:24.365Z,3.73
2018-04-16T18:25:52.343Z,2.97
2018-04-16T18:28:20.277Z,3.70
2018-04-16T18:30:49.039Z,3.50
2018-04-16T18:33:16.933Z,5.50
2018-04-16T18:35:45.703Z,5.50
2018-04-16T18:38:15.601Z,5.17
2018-04-16T18:40:44.711Z,5.67
2018-04-16T18:43:35.529Z,3.53
2018-04-16T18:46:08.116Z,2.87
2018-04-16T18:48:40.352Z,3.30
2018-04-16T18:51:10.001Z,2.60
2018-04-16T18:53:38.118Z,2.90
2018-04-16T18:56:06.223Z,2.80
2018-04-16T18:58:34.268Z,3.27
2018-04-16T19:01:02.332Z,3.80
2018-04-16T19:03:30.485Z,3.73
2018-04-16T19:05:59.467Z,3.50
2018-04-16T19:08:27.512Z,3.63
2018-04-16T19:10:56.334Z,4.23
2018-04-16T19:13:29.288Z,3.23
2018-04-16T19:15:58.975Z,3.33
2018-04-16T19:18:26.913Z,3.27
2018-04-16T19:21:00.502Z,3.97
2018-04-16T19:26:23.536Z,3.65
2018-04-16T19:28:51.579Z,3.83
2018-04-16T19:31:19.698Z,3.83
2018-04-16T19:33:53.232Z,4.20
2018-04-16T19:36:21.316Z,3.78
2018-04-16T19:38:49.322Z,3.30
2018-04-16T19:41:17.391Z,3.20
2018-04-16T19:43:45.329Z,3.80
2018-04-16T19:46:16.859Z,3.73
2018-04-16T19:48:54.055Z,3.37
2018-04-16T19:51:22.346Z,3.10
2018-04-16T19:53:51.011Z,3.92
2018-04-16T19:56:25.921Z,3.50
2018-04-16T19:58:54.866Z,3.35
2018-04-16T20:01:25.259Z,4.03
2018-04-16T20:04:00.135Z,3.47
2018-04-16T20:06:28.240Z,3.90
2018-04-16T20:08:56.249Z,3.28
2018-04-16T20:11:25.238Z,4.62
2018-04-16T20:13:53.509Z,3.78
2018-04-16T20:16:22.289Z,4.30
2018-04-16T20:18:50.238Z,3.17
2018-04-16T20:21:18.232Z,3.58
2018-04-16T20:23:46.963Z,3.25
2018-04-16T20:26:15.013Z,3.60
2018-04-16T20:28:42.950Z,3.55
2018-04-16T20:31:11.000Z,4.68
2018-04-16T20:33:38.917Z,3.33
2018-04-16T20:36:07.704Z,3.70
2018-04-16T20:38:38.233Z,3.90
2018-04-16T20:41:06.664Z,3.65
2018-04-16T20:43:34.583Z,3.45
2018-04-16T20:46:03.323Z,3.75
2018-04-16T20:48:32.207Z,3.28
2018-04-16T20:51:00.188Z,3.92
2018-04-16T20:56:44.104Z,4.85
2018-04-16T20:59:14.220Z,4.45
2018-04-16T21:01:42.338Z,4.47
2018-04-16T21:04:11.457Z,4.70
2018-04-16T21:06:40.863Z,5.87
2018-04-16T21:09:08.824Z,5.62
2018-04-16T21:11:37.702Z,4.62
2018-04-16T21:14:06.725Z,4.53
2018-04-16T21:16:35.531Z,4.10
2018-04-16T21:19:03.553Z,4.65
2018-04-16T21:21:31.770Z,4.40
2018-04-16T21:24:00.845Z,5.37
2018-04-16T21:26:29.000Z,3.97
2018-04-16T21:28:57.818Z,4.97
2018-04-16T21:31:25.833Z,3.50
2018-04-16T21:33:54.533Z,4.15
2018-04-16T21:36:22.629Z,3.67
2018-04-16T21:38:50.845Z,4.20
2018-04-16T21:41:19.741Z,4.25
2018-04-16T21:43:48.462Z,4.00
2018-04-16T21:46:16.575Z,3.20
2018-04-16T21:48:44.653Z,3.53
2018-04-16T21:51:12.758Z,4.75
2018-04-16T21:53:41.477Z,5.05
2018-04-16T21:56:09.472Z,5.20
2018-04-16T21:58:37.449Z,4.28
2018-04-16T22:01:05.537Z,4.70
2018-04-16T22:03:33.534Z,4.55
2018-04-16T22:06:02.308Z,6.28
2018-04-16T22:08:30.257Z,3.75
2018-04-16T22:10:58.306Z,4.12
2018-04-16T22:13:26.323Z,4.00
2018-04-16T22:15:55.180Z,4.10
2018-04-16T22:18:23.586Z,4.28
2018-04-16T22:20:53.754Z,3.83
2018-04-16T22:23:35.013Z,4.22
2018-04-16T22:26:03.121Z,4.00
2018-04-16T22:28:31.055Z,4.28
2018-04-16T22:30:59.899Z,5.00
2018-04-16T22:33:27.959Z,3.87
2018-04-16T22:35:56.031Z,4.40
2018-04-16T22:38:24.055Z,3.25
2018-04-16T22:40:52.817Z,3.80
2018-04-16T22:43:20.737Z,3.62
2018-04-16T22:45:48.744Z,3.50
2018-04-16T22:48:17.581Z,3.92
2018-04-16T22:50:46.399Z,4.05
2018-04-16T22:53:14.360Z,4.35
2018-04-16T22:55:42.391Z,4.00
2018-04-16T22:58:10.382Z,3.50
2018-04-16T23:00:39.055Z,3.80
2018-04-16T23:03:07.092Z,3.45
2018-04-16T23:05:35.021Z,4.37
2018-04-16T23:08:03.856Z,3.35
2018-04-16T23:10:31.841Z,4.32
2018-04-16T23:12:59.852Z,3.78
2018-04-16T23:15:27.785Z,4.07
2018-04-16T23:17:55.843Z,3.45
2018-04-16T23:20:23.823Z,3.70
2018-04-16T23:22:51.840Z,4.22
2018-04-16T23:25:19.782Z,4.37
2018-04-16T23:27:48.594Z,4.28
2018-04-16T23:30:17.341Z,3.72
2018-04-16T23:32:45.334Z,3.60
2018-04-16T23:35:14.096Z,3.40
2018-04-16T23:37:42.123Z,4.75
2018-04-16T23:40:10.153Z,3.92
2018-04-16T23:42:38.221Z,3.75
2018-04-16T23:45:06.169Z,3.45
2018-04-16T23:47:34.157Z,4.25
2018-04-16T23:50:02.074Z,4.32
2018-04-16T23:52:30.040Z,4.20
2018-04-16T23:54:58.717Z,4.07
2018-04-16T23:57:27.465Z,4.28
2018-04-16T23:59:55.417Z,4.28
